Airfield :
LOGIN :

Register | Disclaimer

   EN    FR    IT 

 










Legend :    VFR   Marginal VFR   IFR   Intensive IFR   Very Intensive IFR
Visi :
Ceiling :
>= 8 km
>= 3000ft
5 to 8 km
1000 to 3000 ft
1500m to 5 km
500 to 1000 ft
800 to 1500m
200 to 500 ft
< 800m
< 200 ft
Symbols :   Thunderstorms  Fog  Heavy snow  Heavy precipitations  Wind > 20 kt
SIGMETs :     Misc.  Thunderstorms  Icing  Turbulence  Mountain Waves  Volcanic Ashes






- Airport Elevation : 325 ft
- IATA code : BES


LFRB - Brest

CURRENT METAR :
  • 231430Z AUTO 02010KT 330V050 9999 SCT029 13/05 Q1024 TEMPO 4000 SHRA

EXPIRED METARs :
  • 231400Z AUTO 03009KT 360V060 9999 SCT027 SCT038 14/07 Q1024 TEMPO 4000 SHRA
  • 231330Z AUTO 02010KT 330V060 9999 SCT030 14/06 Q1024 TEMPO 4000 SHRA
  • 231300Z AUTO 02009G19KT 350V070 9999 SCT030 SCT035 14/06 Q1024 TEMPO 4000 SHRA
  • 231230Z AUTO 01009KT 330V050 9999 SCT030 13/06 Q1024 TEMPO 4000 SHRA
  • 231200Z AUTO 03010KT 360V060 9999 SCT023 BKN030 BKN038 12/07 Q1024 TEMPO 4000 SHRA
  • 231130Z AUTO 02008KT 330V060 9999 BKN023 BKN030 13/07 Q1024 TEMPO 4000 SHRA
  • 231100Z AUTO 02010KT 340V060 9999 BKN024 OVC033 12/07 Q1024 TEMPO 4000 SHRA
  • 231030Z AUTO 01010KT 330V040 9999 SCT024 BKN035 OVC042 11/06 Q1025 TEMPO 4000 SHRA

TAF TAF LFRB
Valid from the 23 at 12:00 until the 24 at 18:00 UTC


231100Z 2312/2418 03010KT 9999 BKN025
PROB30
TEMPO 2312/2316 4000 SHRA
BECMG 2316/2318 33010KT
PROB40
TEMPO 2318/2406 4000 -RA BKN012
PROB40
TEMPO 2411/2418 4000 SHRA
ATIS : +33 2 98 32 02 71



MET'MAP, your aeronautical weather chart ! - Copyright ORBIFLY December 2007 - Disclaimer

ORBIFLY MET'MAP TEAM :

Programming & Development : Alexandra Zaïnal
Original concept : Baudouin d'Aumeries
Technical & hardware support : Manuel Goepfert
Assistance : Marc-Olivier Méhu




SOURCES & CREDITS :

   NOAA